Aerbrava English version Versión de Aerbrava en Español Versió en Català d'Aerbrava
curve curve
Tuesday, 23 de April de 2019
22:38 UTC
Sunrise: 04:59
Sunset: 18:35

AERONAUTICAL WEATHER

WEATHER INFORMATION

This section shows the meteorological information that is used in the practice of students in the pilot school at our center during training, so it may not be current and should be used at your own risk. AERBRAVA is not responsible for its use.

ACTUAL WEATHER

Servei Meteorològic de Catalunya sat24.com
LEGE 222230Z 02009KT 350V050 5000 -RA BR BKN006 12/12 Q0999
LEGE 222218Z 02009KT 350V050 5000 -RA BR BKN006 12/12 Q0999
LEGE 222209Z 01009KT 340V040 4000 -RA BR BKN006 12/12 Q0999
LEGE 222200Z 02010KT 340V050 3200 BR FEW007 OVC020 12/12 Q0999
LEGE 222130Z 02011KT 340V050 4000 BR BKN008 BKN020 13/11 Q0999
LEGE 222109Z 02010KT 340V050 9999 BKN008 BKN018 13/11 Q0999
LEGE 222100Z 01009KT 330V040 9999 SCT008 BKN018 13/11 Q0999
LEGE 222030Z 02011KT 340V060 9999 FEW018 BKN020 13/11 Q0999
LEGE 222000Z 02013KT 350V050 9000 BKN022 13/11 Q0999
LEGE 221900Z 04012KT 010V070 9000 SCT025 BKN040 15/10 Q0999
TAF AMD LEGE 222129Z 2221/2318 03012KT 9999 BKN050 TX21/2313Z TN12/2306Z   PROB40   TEMPO 2221/2311 1500 RA BR BKN004   PROB30   TEMPO 2221/2303 TSRA BKN010 FEW050CB   BECMG 2310/2312 19010KT   PROB40   TEMPO 2311/2316 4000 TSRA BKN020 FEW040CB
National Weather service
logo About us | Site map | Privacy | Contact | © 2019 AERBRAVA, SCP